Main page
METAR-TAF:

METAR-TAF

Airports :

Vigo, Spain

Vigo–Peinador Airport

latitude: 42-13N, longitude: 008-38W, elevation: 264 m

Current weather observation

The report was made 38 minutes ago, at 22:30 UTC
Wind 3 kt from the North, varying between Northwest and North/Northeast
Temperature 18°C
Humidity 88%
Pressure 1017 hPa
Visibility 10 km or more
no clouds below 1500 m and no cumulonimbus

METAR: LEVX 232230Z 01003KT 320V030 CAVOK 18/16 Q1017 NOSIG

Time: 01:08 (23:08 UTC)

Forecast

The report was made 6 hours and 8 minutes ago, at 17:00 UTC
Forecast valid from 23 at 18 UTC to 24 at 18 UTC
Wind 5 kt from variable directions
Visibility 10 km or more
Few clouds at a height of 4000 ft
Temporary
from 23 at 18 UTC to 23 at 19 UTC
Wind 12 kt from the West

TAF: LEVX 231700Z 2318/2418 VRB05KT 9999 FEW040 TX26/2414Z TN15/2406Z TEMPO 2318/2319 28012KT

Weather observations and forecasts of more than 4000 airports (METAR and TAF reports).

The available stations are represented by yellow and red dots on the map.

Hover mouse over dot to see the name of the station.

Then click to see weather observations and forecasts.

To change the map : click on the green buttons with a black cross to zoom in, on the green button with a dash to zoom out, or on the green arrows for adjacent maps.


METAR-TAF: